createdAt,value
2023-04-15T00:00:57.513Z,78.60
2023-04-15T00:03:24.746Z,78.40
2023-04-15T00:05:52.010Z,78.00
2023-04-15T00:08:19.439Z,78.00
2023-04-15T00:10:46.745Z,78.20
2023-04-15T00:13:13.674Z,78.30
2023-04-15T00:15:40.695Z,78.40
2023-04-15T00:18:10.193Z,78.60
2023-04-15T00:20:37.156Z,78.70
2023-04-15T00:23:04.300Z,78.70
2023-04-15T00:25:31.588Z,78.20
2023-04-15T00:27:58.385Z,78.20
2023-04-15T00:30:26.457Z,78.30
2023-04-15T00:32:53.526Z,78.50
2023-04-15T00:35:21.715Z,78.60
2023-04-15T00:37:50.117Z,78.50
2023-04-15T00:40:19.523Z,78.40
2023-04-15T00:42:47.033Z,78.50
2023-04-15T00:45:14.069Z,78.80
2023-04-15T00:47:44.523Z,78.40
2023-04-15T00:50:12.682Z,78.60
2023-04-15T00:52:40.145Z,78.70
2023-04-15T00:55:08.075Z,78.50
2023-04-15T00:57:36.166Z,78.80
2023-04-15T01:00:04.709Z,78.50
2023-04-15T01:02:32.655Z,78.40
2023-04-15T01:04:59.614Z,78.30
2023-04-15T01:07:26.349Z,78.30
2023-04-15T01:09:53.803Z,78.50
2023-04-15T01:12:20.756Z,78.40
2023-04-15T01:14:48.172Z,78.70
2023-04-15T01:17:14.924Z,78.90
2023-04-15T01:19:42.241Z,78.90
2023-04-15T01:22:09.243Z,78.60
2023-04-15T01:24:38.850Z,78.70
2023-04-15T01:27:06.220Z,79.10
2023-04-15T01:29:35.832Z,79.50
2023-04-15T01:32:02.748Z,79.50
2023-04-15T01:34:29.726Z,79.60
2023-04-15T01:36:56.609Z,80.00
2023-04-15T01:39:23.398Z,80.00
2023-04-15T01:41:50.137Z,79.90
2023-04-15T01:44:16.882Z,79.80
2023-04-15T01:46:43.722Z,79.30
2023-04-15T01:49:10.631Z,79.40
2023-04-15T01:51:37.401Z,79.20
2023-04-15T01:54:04.318Z,79.50
2023-04-15T01:56:31.366Z,79.60
2023-04-15T01:58:58.468Z,79.90
2023-04-15T02:01:27.361Z,80.20
2023-04-15T02:03:54.103Z,80.30
2023-04-15T02:06:20.989Z,80.50
2023-04-15T02:08:48.181Z,80.30
2023-04-15T02:11:15.406Z,80.50
2023-04-15T02:13:42.228Z,80.40
2023-04-15T02:16:19.098Z,80.40
2023-04-15T02:18:47.372Z,80.40
2023-04-15T02:21:14.422Z,80.50
2023-04-15T02:23:41.430Z,80.60
2023-04-15T02:26:08.239Z,80.40
2023-04-15T02:28:35.765Z,80.40
2023-04-15T02:31:09.543Z,80.10
2023-04-15T02:33:37.717Z,79.90
2023-04-15T02:36:04.967Z,79.80
2023-04-15T02:38:31.988Z,79.70
2023-04-15T02:40:59.321Z,79.60
2023-04-15T02:43:26.043Z,79.50
2023-04-15T02:45:53.585Z,79.20
2023-04-15T02:48:21.167Z,79.20
2023-04-15T02:50:49.016Z,79.20
2023-04-15T02:53:17.538Z,78.90
2023-04-15T02:55:44.295Z,78.80
2023-04-15T02:58:11.027Z,78.60
2023-04-15T03:00:37.891Z,78.70
2023-04-15T03:03:06.099Z,78.70
2023-04-15T03:05:33.104Z,79.00
2023-04-15T03:08:01.481Z,79.30
2023-04-15T03:10:28.474Z,79.30
2023-04-15T03:12:55.615Z,79.30
2023-04-15T03:15:23.886Z,79.50
2023-04-15T03:17:52.797Z,79.40
2023-04-15T03:20:19.737Z,79.50
2023-04-15T03:22:48.019Z,79.30
2023-04-15T03:25:14.932Z,79.40
2023-04-15T03:27:42.999Z,79.60
2023-04-15T03:30:11.542Z,79.40
2023-04-15T03:32:39.539Z,79.50
2023-04-15T03:35:08.166Z,79.70
2023-04-15T03:37:34.897Z,79.70
2023-04-15T03:40:02.384Z,79.70
2023-04-15T03:42:29.071Z,79.50
2023-04-15T03:44:55.868Z,79.60
2023-04-15T03:47:22.894Z,79.90
2023-04-15T03:49:49.593Z,80.00
2023-04-15T03:52:16.570Z,80.30
2023-04-15T03:54:43.449Z,80.00
2023-04-15T03:57:10.184Z,80.20
2023-04-15T03:59:36.891Z,80.10
2023-04-15T04:02:03.722Z,80.10
2023-04-15T04:04:30.514Z,80.40
2023-04-15T04:06:57.306Z,80.70
2023-04-15T04:09:24.059Z,80.50
2023-04-15T04:11:50.711Z,80.60
2023-04-15T04:14:17.367Z,80.60
2023-04-15T04:16:44.923Z,80.80
2023-04-15T04:19:13.847Z,80.70
2023-04-15T04:21:40.622Z,81.10
2023-04-15T04:24:07.304Z,81.30
2023-04-15T04:26:33.987Z,81.30
2023-04-15T04:29:00.824Z,81.20
2023-04-15T04:31:28.091Z,81.20
2023-04-15T04:33:54.799Z,81.20
2023-04-15T04:36:21.597Z,81.20
2023-04-15T04:38:48.274Z,81.30
2023-04-15T04:41:14.964Z,81.10
2023-04-15T04:43:41.782Z,81.40
2023-04-15T04:46:08.558Z,81.10
2023-04-15T04:48:35.319Z,81.10
2023-04-15T04:51:02.367Z,80.80
2023-04-15T04:53:29.156Z,80.60
2023-04-15T04:55:55.869Z,80.80
2023-04-15T04:58:22.612Z,80.80
2023-04-15T05:00:49.391Z,80.80
2023-04-15T05:03:16.316Z,80.80
2023-04-15T05:05:43.431Z,81.20
2023-04-15T05:08:10.097Z,81.70
2023-04-15T05:10:36.798Z,82.00
2023-04-15T05:13:03.812Z,81.80
2023-04-15T05:15:30.586Z,82.10
2023-04-15T05:17:57.603Z,82.20
2023-04-15T05:20:24.337Z,82.90
2023-04-15T05:22:51.142Z,83.20
2023-04-15T05:25:17.986Z,83.50
2023-04-15T05:27:44.703Z,84.00
2023-04-15T05:30:13.457Z,84.30
2023-04-15T05:32:40.859Z,84.40
2023-04-15T05:35:08.507Z,84.70
2023-04-15T05:37:35.471Z,85.30
2023-04-15T05:40:02.258Z,85.40
2023-04-15T05:42:29.120Z,86.10
2023-04-15T05:44:56.216Z,86.40
2023-04-15T05:47:22.983Z,85.70
2023-04-15T05:49:49.693Z,85.20
2023-04-15T05:52:16.592Z,85.20
2023-04-15T05:54:43.405Z,84.80
2023-04-15T05:57:10.217Z,84.60
2023-04-15T05:59:36.930Z,85.10
2023-04-15T06:02:03.639Z,85.20
2023-04-15T06:04:30.553Z,85.60
2023-04-15T06:06:57.802Z,85.30
2023-04-15T06:09:24.627Z,85.70
2023-04-15T06:11:52.235Z,85.80
2023-04-15T06:14:18.927Z,85.80
2023-04-15T06:16:45.605Z,86.10
2023-04-15T06:19:12.403Z,86.20
2023-04-15T06:21:39.192Z,86.30
2023-04-15T06:24:06.277Z,86.30
2023-04-15T06:26:33.332Z,86.30
2023-04-15T06:29:00.437Z,86.40
2023-04-15T06:31:27.586Z,86.60
2023-04-15T06:33:54.422Z,86.70
2023-04-15T06:36:21.659Z,87.10
2023-04-15T06:38:48.376Z,86.80
2023-04-15T06:41:15.688Z,86.60
2023-04-15T06:43:42.443Z,86.80
2023-04-15T06:46:09.243Z,86.70
2023-04-15T06:48:35.989Z,87.50
2023-04-15T06:51:04.008Z,87.70
2023-04-15T06:53:30.847Z,87.90
2023-04-15T06:55:57.574Z,87.80
2023-04-15T06:58:24.364Z,87.80
2023-04-15T07:00:51.092Z,87.90
2023-04-15T07:03:18.333Z,88.20
2023-04-15T07:05:45.049Z,88.50
2023-04-15T07:08:12.294Z,88.70
2023-04-15T07:10:39.135Z,89.20
2023-04-15T07:13:07.018Z,89.50
2023-04-15T07:15:33.792Z,89.80
2023-04-15T07:18:00.877Z,90.20
2023-04-15T07:20:27.711Z,90.40
2023-04-15T07:22:54.877Z,90.70
2023-04-15T07:25:21.785Z,91.00
2023-04-15T07:27:48.564Z,91.50
2023-04-15T07:30:15.948Z,91.80
2023-04-15T07:32:43.101Z,92.20
2023-04-15T07:35:10.686Z,92.20
2023-04-15T07:37:37.569Z,92.20
2023-04-15T07:40:05.583Z,91.90
2023-04-15T07:42:32.860Z,91.70
2023-04-15T07:44:59.638Z,91.70
2023-04-15T07:47:27.078Z,91.40
2023-04-15T07:49:53.793Z,91.30
2023-04-15T07:52:20.488Z,91.70
2023-04-15T07:54:47.236Z,91.60
2023-04-15T07:57:13.895Z,92.10
2023-04-15T07:59:40.685Z,91.90
2023-04-15T08:02:08.383Z,91.90
2023-04-15T08:04:35.399Z,91.90
2023-04-15T08:07:02.469Z,92.10
2023-04-15T08:09:29.287Z,92.30
2023-04-15T08:11:57.083Z,92.80
2023-04-15T08:14:24.672Z,93.10
2023-04-15T08:16:51.459Z,93.70
2023-04-15T08:19:18.265Z,94.00
2023-04-15T08:21:44.989Z,94.10
2023-04-15T08:24:12.257Z,94.10
2023-04-15T08:26:38.963Z,94.20
2023-04-15T08:29:05.629Z,94.20
2023-04-15T08:31:32.397Z,94.10
2023-04-15T08:33:59.540Z,94.10
2023-04-15T08:36:27.047Z,93.70
2023-04-15T08:38:53.843Z,92.80
2023-04-15T08:41:25.292Z,92.30
2023-04-15T08:43:54.980Z,92.10
2023-04-15T08:46:22.707Z,91.90
2023-04-15T08:48:50.192Z,91.40
2023-04-15T08:51:18.166Z,90.80
2023-04-15T08:53:46.428Z,90.70
2023-04-15T08:56:15.459Z,91.00
2023-04-15T08:58:44.807Z,91.30
2023-04-15T09:01:14.781Z,90.50
2023-04-15T09:03:42.454Z,91.50
2023-04-15T09:06:09.354Z,91.30
2023-04-15T09:08:36.075Z,90.90
2023-04-15T09:11:03.636Z,92.50
2023-04-15T09:13:30.875Z,93.00
2023-04-15T09:15:58.455Z,92.80
2023-04-15T09:18:32.529Z,92.70
2023-04-15T09:21:11.359Z,91.70
2023-04-15T09:23:39.652Z,91.00
2023-04-15T09:26:07.031Z,90.50
2023-04-15T09:28:40.942Z,90.40
2023-04-15T09:31:07.844Z,90.30
2023-04-15T09:33:34.863Z,90.30
2023-04-15T09:36:04.686Z,90.30
2023-04-15T09:38:32.255Z,90.40
2023-04-15T09:40:59.472Z,91.20
2023-04-15T09:43:39.951Z,91.30
2023-04-15T09:46:06.881Z,91.50
2023-04-15T09:48:33.606Z,91.60
2023-04-15T09:51:01.456Z,91.20
2023-04-15T09:53:31.180Z,90.90
2023-04-15T09:56:02.847Z,90.80
2023-04-15T09:58:33.579Z,90.60
2023-04-15T10:01:03.142Z,91.00
2023-04-15T10:03:32.331Z,91.40
2023-04-15T10:06:00.942Z,91.20
2023-04-15T10:08:32.878Z,91.00
2023-04-15T10:11:01.980Z,91.00
2023-04-15T10:13:33.367Z,91.10
2023-04-15T10:16:11.830Z,90.50
2023-04-15T10:18:42.788Z,90.30
2023-04-15T10:21:10.177Z,90.00
2023-04-15T10:23:38.307Z,90.00
2023-04-15T10:26:06.093Z,90.10
2023-04-15T10:28:32.858Z,90.10
2023-04-15T10:31:00.206Z,89.70
2023-04-15T10:33:28.679Z,89.20
2023-04-15T10:35:56.461Z,88.30
2023-04-15T10:38:41.639Z,88.20
2023-04-15T10:41:18.690Z,87.90
2023-04-15T10:44:01.096Z,87.80
2023-04-15T10:46:40.124Z,87.90
2023-04-15T10:49:12.838Z,88.20
2023-04-15T10:51:51.029Z,88.00
2023-04-15T10:54:26.766Z,88.30
2023-04-15T10:57:05.884Z,87.70
2023-04-15T10:59:36.047Z,87.90
2023-04-15T11:02:07.571Z,87.90
2023-04-15T11:04:59.832Z,87.20
2023-04-15T11:07:44.736Z,87.40
2023-04-15T11:10:14.201Z,86.80
2023-04-15T11:12:41.856Z,87.20
2023-04-15T11:15:27.283Z,87.70
2023-04-15T11:17:54.138Z,87.40
2023-04-15T11:20:21.199Z,88.00
2023-04-15T11:22:52.448Z,87.20
2023-04-15T11:25:37.607Z,87.10
2023-04-15T11:28:06.005Z,87.10
2023-04-15T11:30:35.009Z,86.80
2023-04-15T11:33:06.804Z,86.90
2023-04-15T11:35:34.490Z,87.30
2023-04-15T11:38:06.110Z,87.30
2023-04-15T11:40:35.792Z,87.10
2023-04-15T11:43:05.689Z,87.20
2023-04-15T11:45:32.589Z,87.10
2023-04-15T11:48:10.526Z,87.20
2023-04-15T11:50:40.565Z,87.30
2023-04-15T11:53:09.254Z,87.60
2023-04-15T11:55:50.429Z,87.90
2023-04-15T11:58:18.590Z,87.50
2023-04-15T12:00:54.093Z,87.70
2023-04-15T12:03:36.224Z,87.70
2023-04-15T12:06:25.398Z,88.00
2023-04-15T12:08:52.720Z,87.90
2023-04-15T12:11:32.990Z,87.60
2023-04-15T12:14:30.312Z,87.70
2023-04-15T12:17:02.136Z,87.90
2023-04-15T12:19:29.300Z,88.00
2023-04-15T12:22:04.168Z,88.20
2023-04-15T12:24:35.536Z,88.20
2023-04-15T12:27:04.061Z,88.00
2023-04-15T12:29:31.544Z,88.10
2023-04-15T12:32:12.876Z,88.00
2023-04-15T12:34:40.848Z,87.90
2023-04-15T12:37:12.171Z,87.70
2023-04-15T12:39:41.135Z,88.00
2023-04-15T12:42:09.166Z,88.20
2023-04-15T12:44:37.021Z,88.30
2023-04-15T12:47:04.290Z,88.50
2023-04-15T12:49:32.468Z,88.20
2023-04-15T12:52:01.205Z,88.70
2023-04-15T12:54:28.833Z,88.50
2023-04-15T12:56:56.619Z,88.70
2023-04-15T12:59:26.735Z,88.80
2023-04-15T13:01:54.062Z,88.70
2023-04-15T13:04:21.919Z,89.00
2023-04-15T13:06:49.149Z,88.90
2023-04-15T13:09:15.950Z,88.90
2023-04-15T13:11:42.892Z,89.00
2023-04-15T13:14:11.680Z,89.10
2023-04-15T13:16:38.829Z,89.10
2023-04-15T13:19:05.563Z,89.30
2023-04-15T13:21:35.497Z,89.30
2023-04-15T13:24:04.263Z,89.50
2023-04-15T13:26:31.675Z,89.40
2023-04-15T13:28:58.629Z,89.40
2023-04-15T13:31:25.471Z,89.50
2023-04-15T13:33:52.262Z,89.60
2023-04-15T13:36:19.246Z,89.70
2023-04-15T13:38:46.749Z,89.70
2023-04-15T13:41:14.331Z,89.50
2023-04-15T13:43:41.541Z,89.40
2023-04-15T13:46:08.727Z,89.80
2023-04-15T13:48:36.087Z,89.70
2023-04-15T13:51:02.880Z,89.90
2023-04-15T13:53:33.925Z,90.20
2023-04-15T13:56:06.908Z,90.50
2023-04-15T13:58:33.712Z,90.50
2023-04-15T14:01:01.198Z,90.40
2023-04-15T14:03:28.940Z,90.10
2023-04-15T14:05:56.949Z,90.30
2023-04-15T14:08:25.010Z,90.30
2023-04-15T14:10:51.741Z,90.20
2023-04-15T14:13:19.540Z,90.00
2023-04-15T14:15:46.874Z,90.20
2023-04-15T14:18:13.632Z,90.30
2023-04-15T14:20:40.465Z,90.30
2023-04-15T14:23:07.743Z,90.40
2023-04-15T14:25:34.518Z,90.10
2023-04-15T14:28:02.315Z,90.30
2023-04-15T14:30:29.140Z,90.00
2023-04-15T14:32:56.075Z,90.00
2023-04-15T14:35:24.637Z,90.20
2023-04-15T14:37:51.513Z,90.20
2023-04-15T14:40:18.340Z,90.00
2023-04-15T14:42:46.484Z,90.20
2023-04-15T14:45:13.275Z,90.30
2023-04-15T14:47:39.984Z,89.80
2023-04-15T14:50:07.236Z,90.30
2023-04-15T14:52:38.622Z,90.00
2023-04-15T14:55:07.486Z,90.00
2023-04-15T14:57:34.182Z,90.00
2023-04-15T15:00:00.837Z,89.70
2023-04-15T15:02:38.114Z,90.00
2023-04-15T15:05:06.717Z,89.40
2023-04-15T15:07:33.766Z,89.70
2023-04-15T15:10:00.458Z,89.30
2023-04-15T15:12:27.164Z,88.20
2023-04-15T15:14:55.988Z,87.20
2023-04-15T15:17:22.827Z,86.60
2023-04-15T15:19:49.584Z,85.80
2023-04-15T15:22:18.040Z,85.60
2023-04-15T15:24:45.734Z,85.00
2023-04-15T15:27:12.492Z,85.30
2023-04-15T15:29:39.638Z,85.30
2023-04-15T15:32:06.487Z,85.20
2023-04-15T15:34:33.185Z,84.70
2023-04-15T15:37:00.821Z,85.20
2023-04-15T15:39:27.867Z,85.00
2023-04-15T15:41:54.976Z,85.00
2023-04-15T15:44:21.856Z,83.00
2023-04-15T15:46:49.971Z,79.70
2023-04-15T15:49:16.816Z,77.80
2023-04-15T15:51:43.684Z,78.00
2023-04-15T15:54:10.402Z,79.30
2023-04-15T15:56:39.230Z,81.10
2023-04-15T15:59:06.109Z,82.60
2023-04-15T16:01:33.073Z,83.20
2023-04-15T16:04:00.153Z,84.00
2023-04-15T16:06:27.094Z,84.30
2023-04-15T16:08:53.830Z,85.00
2023-04-15T16:11:20.820Z,85.20
2023-04-15T16:13:47.560Z,85.60
2023-04-15T16:16:14.478Z,85.90
2023-04-15T16:18:41.286Z,86.30
2023-04-15T16:21:08.923Z,86.30
2023-04-15T16:23:36.678Z,86.60
2023-04-15T16:26:03.753Z,86.80
2023-04-15T16:28:30.599Z,86.90
2023-04-15T16:30:57.407Z,86.90
2023-04-15T16:33:24.209Z,86.80
2023-04-15T16:35:51.594Z,86.50
2023-04-15T16:38:18.289Z,86.40
2023-04-15T16:40:45.708Z,86.10
2023-04-15T16:43:12.517Z,85.70
2023-04-15T16:45:39.275Z,85.90
2023-04-15T16:48:06.354Z,85.20
2023-04-15T16:50:33.156Z,85.20
2023-04-15T16:52:59.830Z,85.30
2023-04-15T16:55:27.141Z,85.10
2023-04-15T16:58:03.251Z,85.50
2023-04-15T17:00:32.837Z,85.70
2023-04-15T17:03:00.583Z,85.70
2023-04-15T17:05:27.796Z,86.00
2023-04-15T17:07:55.397Z,86.30
2023-04-15T17:10:22.816Z,86.40
2023-04-15T17:12:51.894Z,86.40
2023-04-15T17:15:19.576Z,86.50
2023-04-15T17:17:46.447Z,86.70
2023-04-15T17:20:13.302Z,86.90
2023-04-15T17:22:40.065Z,86.80
2023-04-15T17:25:07.260Z,86.90
2023-04-15T17:27:34.040Z,86.60
2023-04-15T17:30:00.842Z,86.80
2023-04-15T17:32:34.301Z,86.90
2023-04-15T17:35:05.507Z,87.00
2023-04-15T17:37:33.496Z,87.10
2023-04-15T17:40:00.563Z,87.00
2023-04-15T17:42:27.320Z,87.00
2023-04-15T17:44:54.025Z,87.30
2023-04-15T17:47:20.774Z,87.20
2023-04-15T17:49:47.739Z,87.60
2023-04-15T17:52:14.571Z,87.50
2023-04-15T17:54:41.477Z,87.60
2023-04-15T17:57:09.203Z,87.80
2023-04-15T17:59:35.901Z,87.70
2023-04-15T18:02:04.179Z,87.80
2023-04-15T18:06:57.737Z,87.90
2023-04-15T18:09:24.478Z,88.00
2023-04-15T18:11:51.201Z,88.10
2023-04-15T18:14:33.045Z,88.30
2023-04-15T18:17:04.783Z,88.10
2023-04-15T18:19:32.037Z,88.00
2023-04-15T18:22:00.127Z,88.30
2023-04-15T18:24:27.231Z,88.30
2023-04-15T18:26:54.168Z,88.20
2023-04-15T18:29:20.920Z,88.20
2023-04-15T18:31:47.836Z,88.50
2023-04-15T18:34:14.575Z,88.60
2023-04-15T18:36:41.460Z,88.70
2023-04-15T18:39:08.461Z,88.60
2023-04-15T18:41:35.286Z,88.60
2023-04-15T18:44:02.067Z,88.60
2023-04-15T18:46:29.202Z,88.50
2023-04-15T18:48:55.935Z,88.50
2023-04-15T18:51:22.632Z,88.40
2023-04-15T18:53:49.354Z,88.30
2023-04-15T18:56:16.119Z,88.40
2023-04-15T18:59:26.318Z,88.40
2023-04-15T19:01:31.410Z,88.30
2023-04-15T19:03:58.284Z,88.50
2023-04-15T19:06:26.703Z,88.40
2023-04-15T19:08:53.451Z,88.30
2023-04-15T19:11:20.281Z,88.40
2023-04-15T19:13:47.055Z,88.70
2023-04-15T19:16:13.804Z,88.70
2023-04-15T19:18:40.630Z,88.70
2023-04-15T19:21:07.371Z,88.70
2023-04-15T19:23:34.124Z,88.70
2023-04-15T19:26:00.944Z,88.60
2023-04-15T19:28:28.325Z,88.70
2023-04-15T19:30:55.367Z,88.70
2023-04-15T19:33:22.204Z,88.70
2023-04-15T19:35:50.138Z,88.80
2023-04-15T19:38:17.288Z,88.60
2023-04-15T19:40:44.231Z,88.70
2023-04-15T19:43:10.968Z,88.80
2023-04-15T19:45:37.775Z,88.90
2023-04-15T19:48:06.095Z,89.00
2023-04-15T19:50:32.982Z,89.00
2023-04-15T19:52:59.774Z,89.10
2023-04-15T19:55:26.480Z,89.00
2023-04-15T19:57:53.382Z,89.40
2023-04-15T20:00:20.283Z,89.20
2023-04-15T20:02:47.231Z,89.40
2023-04-15T20:05:14.355Z,89.50
2023-04-15T20:07:42.532Z,89.90
2023-04-15T20:10:13.002Z,90.00
2023-04-15T20:12:51.328Z,90.00
2023-04-15T20:15:20.635Z,89.70
2023-04-15T20:17:47.505Z,89.50
2023-04-15T20:20:14.334Z,89.60
2023-04-15T20:22:41.396Z,89.80
2023-04-15T20:25:09.129Z,89.80
2023-04-15T20:27:35.917Z,89.50
2023-04-15T20:30:04.852Z,89.20
2023-04-15T20:32:35.893Z,88.70
2023-04-15T20:35:04.189Z,88.40
2023-04-15T20:37:33.044Z,88.20
2023-04-15T20:40:00.688Z,88.20
2023-04-15T20:42:27.550Z,88.20
2023-04-15T20:44:54.412Z,88.30
2023-04-15T20:47:21.428Z,88.50
2023-04-15T20:49:48.229Z,88.20
2023-04-15T20:52:15.168Z,87.80
2023-04-15T20:54:41.944Z,87.70
2023-04-15T20:57:08.975Z,87.70
2023-04-15T20:59:36.046Z,87.80
2023-04-15T21:02:02.942Z,87.60
2023-04-15T21:04:29.893Z,87.50
2023-04-15T21:06:56.583Z,87.70
2023-04-15T21:09:23.253Z,87.50
2023-04-15T21:14:19.944Z,87.50
2023-04-15T21:16:46.835Z,87.30
2023-04-15T21:19:13.736Z,87.40
2023-04-15T21:21:40.642Z,87.50
2023-04-15T21:24:10.230Z,87.30
2023-04-15T21:26:36.972Z,87.30
2023-04-15T21:29:04.009Z,87.10
2023-04-15T21:31:30.880Z,87.00
2023-04-15T21:33:57.655Z,87.20
2023-04-15T21:36:24.438Z,87.50
2023-04-15T21:38:51.228Z,87.70
2023-04-15T21:41:17.946Z,87.80
2023-04-15T21:43:44.799Z,88.60
2023-04-15T21:46:23.145Z,88.50
2023-04-15T21:48:54.812Z,88.80
2023-04-15T21:51:21.541Z,88.70
2023-04-15T21:53:48.246Z,88.50
2023-04-15T21:56:14.966Z,88.30
2023-04-15T21:58:41.725Z,88.00
2023-04-15T22:01:08.576Z,87.70
2023-04-15T22:03:35.712Z,87.30
2023-04-15T22:06:03.725Z,87.50
2023-04-15T22:08:41.341Z,87.10
2023-04-15T22:11:28.184Z,86.60
2023-04-15T22:13:58.974Z,85.90
2023-04-15T22:16:26.744Z,85.50
2023-04-15T22:18:54.468Z,85.30
2023-04-15T22:21:21.316Z,85.50
2023-04-15T22:23:49.216Z,85.60
2023-04-15T22:26:16.122Z,85.70
2023-04-15T22:28:42.827Z,86.10
2023-04-15T22:31:10.076Z,86.20
2023-04-15T22:33:38.683Z,85.70
2023-04-15T22:36:05.774Z,85.80
2023-04-15T22:38:32.605Z,85.70
2023-04-15T22:40:59.487Z,85.40
2023-04-15T22:43:27.364Z,85.50
2023-04-15T22:45:54.792Z,85.40
2023-04-15T22:48:21.770Z,85.20
2023-04-15T22:50:48.903Z,84.90
2023-04-15T22:53:17.347Z,84.90
2023-04-15T22:55:48.287Z,84.90
2023-04-15T22:58:16.188Z,84.20
2023-04-15T23:00:43.193Z,84.30
2023-04-15T23:03:10.134Z,84.30
2023-04-15T23:05:37.294Z,84.50
2023-04-15T23:08:04.064Z,84.50
2023-04-15T23:10:30.849Z,84.40
2023-04-15T23:12:57.729Z,84.30
2023-04-15T23:15:24.951Z,83.90
2023-04-15T23:17:51.816Z,83.80
2023-04-15T23:20:18.788Z,83.70
2023-04-15T23:22:45.647Z,83.60
2023-04-15T23:25:12.501Z,83.70
2023-04-15T23:27:39.280Z,83.70
2023-04-15T23:30:06.998Z,83.80
2023-04-15T23:32:34.008Z,84.70
2023-04-15T23:35:01.013Z,84.90
2023-04-15T23:37:29.760Z,85.10
2023-04-15T23:39:56.646Z,85.40
2023-04-15T23:42:24.135Z,85.10
2023-04-15T23:44:51.083Z,84.80
2023-04-15T23:47:17.827Z,85.00
2023-04-15T23:49:44.600Z,84.50
2023-04-15T23:52:11.585Z,84.20
2023-04-15T23:54:38.348Z,84.00
2023-04-15T23:57:05.250Z,83.70
2023-04-15T23:59:31.947Z,83.70
